Amherst, MA (01004)

10:53 AM EST on February 06, 2016 (GMT -0500)
Amherst College | | Change Station
CLOSE
Current Station
Personal Weather Station
Location: Amherst, MA
Elevation: 348 ft
Nearby Weather Stations

Elev 348 ft 42.37 °N, 72.52 °W | Updated 27 seconds ago

Mostly Cloudy
Mostly Cloudy
29.2 °F
Feels Like 24 °F
N
4.4
Wind Variable Wind from North

Today
High -- | Low -- °F
--% Chance of Precip.
Yesterday
High -- | Low -- °F
Precip. -- in
Pressure 30.41 in
Visibility 10.0 miles
Clouds Few 19000 ft
Windchill 24 °F
Dew Point 21 °F
Humidity 72%
Rainfall 0.00 in
Snow Depth Not available.
6:58 AM 5:10 PM
Waning Crescent, 5% visible
METAR KCEF 061458Z AUTO 00000KT 10SM FEW190 M05/M06 A3038 RMK AO2 SLP297 T10481061 50012
Pressure 30.41 in
Visibility 10.0 miles
Clouds Few 19000 ft
Windchill 24 °F
Dew Point 21 °F
Humidity 72%
Rainfall 0.00 in
Snow Depth Not available.
6:58 AM 5:10 PM
Waning Crescent, 5% visible
METAR KCEF 061458Z AUTO 00000KT 10SM FEW190 M05/M06 A3038 RMK AO2 SLP297 T10481061 50012

10-Day Weather Forecast

Almanac

Astronomy

Feb. 06, 2016 Rise Set
Actual Time
Civil Twilight
Nautical Twilight
Astronomical Twilight
Moon
Length of Visible Light
Length of Day
Tomorrow will be .
, % of the Moon is Illuminated

Today's Extremes

State Highs State Lows

Community

WunderPhotos

Upload Photos

1,890,987 photos uploaded!

WunderBlog® & News

Nearby

Air Quality

  Air Quality AQ Index Pollutant
Not available.

Snow Depth

Station Depth Elevation

Earthquake Activity

City Distance Mag. Time & Date
Minimum magnitude displayed is 2.5.

Coastal Water Temperatures

Place Temperature

Stations

Nearby Weather Stations

Station Location Temp. Windchill Dew Point Humidity Wind Precip. Elev Updated Type
                   

Watches & Warnings

There are currently no watches in effect.